sensor_id;sensor_type;location;lat;lon;timestamp;P1;durP1;ratioP1;P2;durP2;ratioP2
20207;SDS011;10263;48.716;8.760;2022-07-10T00:02:39;2.95;;;2.70;;
20207;SDS011;10263;48.716;8.760;2022-07-10T00:05:07;2.83;;;2.63;;
20207;SDS011;10263;48.716;8.760;2022-07-10T00:07:34;4.13;;;2.70;;
20207;SDS011;10263;48.716;8.760;2022-07-10T00:10:01;3.53;;;2.65;;
20207;SDS011;10263;48.716;8.760;2022-07-10T00:12:29;3.38;;;2.45;;
20207;SDS011;10263;48.716;8.760;2022-07-10T00:14:56;3.22;;;2.70;;
20207;SDS011;10263;48.716;8.760;2022-07-10T00:17:23;2.13;;;2.03;;
20207;SDS011;10263;48.716;8.760;2022-07-10T00:19:51;3.20;;;2.90;;
20207;SDS011;10263;48.716;8.760;2022-07-10T00:22:18;2.47;;;2.28;;
20207;SDS011;10263;48.716;8.760;2022-07-10T00:24:44;3.53;;;2.58;;
20207;SDS011;10263;48.716;8.760;2022-07-10T00:27:11;2.72;;;2.47;;
20207;SDS011;10263;48.716;8.760;2022-07-10T00:29:38;2.60;;;2.38;;
20207;SDS011;10263;48.716;8.760;2022-07-10T00:32:05;2.95;;;2.60;;
20207;SDS011;10263;48.716;8.760;2022-07-10T00:34:32;2.70;;;2.50;;
20207;SDS011;10263;48.716;8.760;2022-07-10T00:37:01;2.83;;;2.63;;
20207;SDS011;10263;48.716;8.760;2022-07-10T00:39:29;2.80;;;2.60;;
20207;SDS011;10263;48.716;8.760;2022-07-10T00:42:05;3.88;;;2.60;;
20207;SDS011;10263;48.716;8.760;2022-07-10T00:44:32;3.20;;;2.80;;
20207;SDS011;10263;48.716;8.760;2022-07-10T00:46:59;2.92;;;2.63;;
20207;SDS011;10263;48.716;8.760;2022-07-10T00:49:26;2.90;;;2.65;;
20207;SDS011;10263;48.716;8.760;2022-07-10T00:51:53;2.70;;;2.50;;
20207;SDS011;10263;48.716;8.760;2022-07-10T00:54:21;2.80;;;2.60;;
20207;SDS011;10263;48.716;8.760;2022-07-10T00:56:48;3.53;;;2.80;;
20207;SDS011;10263;48.716;8.760;2022-07-10T00:59:15;4.63;;;2.95;;
20207;SDS011;10263;48.716;8.760;2022-07-10T01:01:42;3.00;;;2.72;;
20207;SDS011;10263;48.716;8.760;2022-07-10T01:04:09;3.50;;;3.13;;
20207;SDS011;10263;48.716;8.760;2022-07-10T01:06:36;3.53;;;3.22;;
20207;SDS011;10263;48.716;8.760;2022-07-10T01:09:03;4.85;;;3.45;;
20207;SDS011;10263;48.716;8.760;2022-07-10T01:11:31;3.72;;;3.00;;
20207;SDS011;10263;48.716;8.760;2022-07-10T01:14:00;3.53;;;2.83;;
20207;SDS011;10263;48.716;8.760;2022-07-10T01:16:27;7.03;;;3.35;;
20207;SDS011;10263;48.716;8.760;2022-07-10T01:18:54;3.33;;;3.03;;
20207;SDS011;10263;48.716;8.760;2022-07-10T01:21:26;3.30;;;3.00;;
20207;SDS011;10263;48.716;8.760;2022-07-10T01:23:54;3.47;;;2.85;;
20207;SDS011;10263;48.716;8.760;2022-07-10T01:26:21;3.50;;;3.20;;
20207;SDS011;10263;48.716;8.760;2022-07-10T01:28:49;4.13;;;3.72;;
20207;SDS011;10263;48.716;8.760;2022-07-10T01:31:17;4.03;;;3.70;;
20207;SDS011;10263;48.716;8.760;2022-07-10T01:33:44;4.40;;;3.83;;
20207;SDS011;10263;48.716;8.760;2022-07-10T01:36:11;4.30;;;3.90;;
20207;SDS011;10263;48.716;8.760;2022-07-10T01:38:40;6.72;;;2.90;;
20207;SDS011;10263;48.716;8.760;2022-07-10T01:41:07;6.80;;;3.97;;
20207;SDS011;10263;48.716;8.760;2022-07-10T01:43:34;4.40;;;3.38;;
20207;SDS011;10263;48.716;8.760;2022-07-10T01:46:01;4.45;;;3.72;;
20207;SDS011;10263;48.716;8.760;2022-07-10T01:48:28;6.68;;;5.00;;
20207;SDS011;10263;48.716;8.760;2022-07-10T01:50:56;5.70;;;4.80;;
20207;SDS011;10263;48.716;8.760;2022-07-10T01:53:23;9.18;;;4.72;;
20207;SDS011;10263;48.716;8.760;2022-07-10T01:55:51;5.82;;;4.85;;
20207;SDS011;10263;48.716;8.760;2022-07-10T01:58:18;5.25;;;4.43;;
20207;SDS011;10263;48.716;8.760;2022-07-10T02:00:45;5.43;;;4.32;;
20207;SDS011;10263;48.716;8.760;2022-07-10T02:03:11;5.97;;;5.18;;
20207;SDS011;10263;48.716;8.760;2022-07-10T02:05:56;5.53;;;4.35;;
20207;SDS011;10263;48.716;8.760;2022-07-10T02:08:23;6.20;;;3.90;;
20207;SDS011;10263;48.716;8.760;2022-07-10T02:10:51;4.80;;;3.80;;
20207;SDS011;10263;48.716;8.760;2022-07-10T02:13:19;4.18;;;3.78;;
20207;SDS011;10263;48.716;8.760;2022-07-10T02:15:46;4.55;;;3.42;;
20207;SDS011;10263;48.716;8.760;2022-07-10T02:18:13;5.00;;;3.53;;
20207;SDS011;10263;48.716;8.760;2022-07-10T02:20:40;5.72;;;4.85;;
20207;SDS011;10263;48.716;8.760;2022-07-10T02:23:09;5.20;;;4.32;;
20207;SDS011;10263;48.716;8.760;2022-07-10T02:25:36;5.70;;;4.47;;
20207;SDS011;10263;48.716;8.760;2022-07-10T02:28:04;5.45;;;4.50;;
20207;SDS011;10263;48.716;8.760;2022-07-10T02:30:31;4.60;;;3.97;;
20207;SDS011;10263;48.716;8.760;2022-07-10T02:32:58;4.43;;;4.05;;
20207;SDS011;10263;48.716;8.760;2022-07-10T02:35:25;5.18;;;4.50;;
20207;SDS011;10263;48.716;8.760;2022-07-10T02:37:51;5.72;;;5.13;;
20207;SDS011;10263;48.716;8.760;2022-07-10T02:40:18;5.22;;;4.78;;
20207;SDS011;10263;48.716;8.760;2022-07-10T02:42:45;4.97;;;4.57;;
20207;SDS011;10263;48.716;8.760;2022-07-10T02:45:13;5.97;;;4.72;;
20207;SDS011;10263;48.716;8.760;2022-07-10T02:47:40;6.05;;;5.40;;
20207;SDS011;10263;48.716;8.760;2022-07-10T02:50:08;5.15;;;4.70;;
20207;SDS011;10263;48.716;8.760;2022-07-10T02:52:35;5.75;;;5.20;;
20207;SDS011;10263;48.716;8.760;2022-07-10T02:55:02;6.00;;;5.50;;
20207;SDS011;10263;48.716;8.760;2022-07-10T02:57:29;7.10;;;6.40;;
20207;SDS011;10263;48.716;8.760;2022-07-10T02:59:55;6.68;;;6.03;;
20207;SDS011;10263;48.716;8.760;2022-07-10T03:02:23;6.32;;;5.72;;
20207;SDS011;10263;48.716;8.760;2022-07-10T03:04:51;6.63;;;5.80;;
20207;SDS011;10263;48.716;8.760;2022-07-10T03:07:18;7.38;;;5.68;;
20207;SDS011;10263;48.716;8.760;2022-07-10T03:09:45;6.78;;;6.00;;
20207;SDS011;10263;48.716;8.760;2022-07-10T03:12:11;8.13;;;7.32;;
20207;SDS011;10263;48.716;8.760;2022-07-10T03:14:38;7.20;;;6.50;;
20207;SDS011;10263;48.716;8.760;2022-07-10T03:17:05;6.43;;;5.82;;
20207;SDS011;10263;48.716;8.760;2022-07-10T03:19:33;6.53;;;5.80;;
20207;SDS011;10263;48.716;8.760;2022-07-10T03:22:00;7.30;;;6.60;;
20207;SDS011;10263;48.716;8.760;2022-07-10T03:24:26;6.95;;;6.32;;
20207;SDS011;10263;48.716;8.760;2022-07-10T03:26:53;6.95;;;6.18;;
20207;SDS011;10263;48.716;8.760;2022-07-10T03:29:20;6.70;;;5.82;;
20207;SDS011;10263;48.716;8.760;2022-07-10T03:31:47;6.72;;;6.13;;
20207;SDS011;10263;48.716;8.760;2022-07-10T03:34:13;7.32;;;6.45;;
20207;SDS011;10263;48.716;8.760;2022-07-10T03:36:42;8.77;;;6.43;;
20207;SDS011;10263;48.716;8.760;2022-07-10T03:39:08;7.10;;;6.50;;
20207;SDS011;10263;48.716;8.760;2022-07-10T03:41:35;7.57;;;6.78;;
20207;SDS011;10263;48.716;8.760;2022-07-10T03:44:02;7.47;;;5.93;;
20207;SDS011;10263;48.716;8.760;2022-07-10T03:46:30;6.93;;;6.32;;
20207;SDS011;10263;48.716;8.760;2022-07-10T03:48:57;7.05;;;5.82;;
20207;SDS011;10263;48.716;8.760;2022-07-10T03:51:24;6.22;;;5.70;;
20207;SDS011;10263;48.716;8.760;2022-07-10T03:53:53;7.25;;;5.88;;
20207;SDS011;10263;48.716;8.760;2022-07-10T03:56:20;5.78;;;5.18;;
20207;SDS011;10263;48.716;8.760;2022-07-10T03:59:04;6.88;;;5.68;;
20207;SDS011;10263;48.716;8.760;2022-07-10T04:01:31;7.80;;;6.20;;
20207;SDS011;10263;48.716;8.760;2022-07-10T04:03:57;5.80;;;5.30;;
20207;SDS011;10263;48.716;8.760;2022-07-10T04:06:24;5.35;;;4.85;;
20207;SDS011;10263;48.716;8.760;2022-07-10T04:08:52;5.07;;;4.68;;
20207;SDS011;10263;48.716;8.760;2022-07-10T04:11:19;5.43;;;4.93;;
20207;SDS011;10263;48.716;8.760;2022-07-10T04:13:46;6.53;;;4.65;;
20207;SDS011;10263;48.716;8.760;2022-07-10T04:16:12;5.20;;;4.32;;
20207;SDS011;10263;48.716;8.760;2022-07-10T04:18:39;5.57;;;4.60;;
20207;SDS011;10263;48.716;8.760;2022-07-10T04:21:06;4.72;;;4.00;;
20207;SDS011;10263;48.716;8.760;2022-07-10T04:23:33;4.63;;;4.22;;
20207;SDS011;10263;48.716;8.760;2022-07-10T04:26:01;5.47;;;4.50;;
20207;SDS011;10263;48.716;8.760;2022-07-10T04:28:28;4.20;;;3.50;;
20207;SDS011;10263;48.716;8.760;2022-07-10T04:30:55;4.85;;;4.45;;
20207;SDS011;10263;48.716;8.760;2022-07-10T04:33:21;4.75;;;3.80;;
20207;SDS011;10263;48.716;8.760;2022-07-10T04:35:48;6.28;;;4.55;;
20207;SDS011;10263;48.716;8.760;2022-07-10T04:38:15;6.15;;;3.92;;
20207;SDS011;10263;48.716;8.760;2022-07-10T04:40:42;5.15;;;4.07;;
20207;SDS011;10263;48.716;8.760;2022-07-10T04:43:10;7.43;;;4.03;;
20207;SDS011;10263;48.716;8.760;2022-07-10T04:45:37;6.30;;;3.80;;
20207;SDS011;10263;48.716;8.760;2022-07-10T04:48:04;3.90;;;3.50;;
20207;SDS011;10263;48.716;8.760;2022-07-10T04:50:32;4.38;;;3.58;;
20207;SDS011;10263;48.716;8.760;2022-07-10T04:52:58;5.57;;;3.53;;
20207;SDS011;10263;48.716;8.760;2022-07-10T04:55:25;4.38;;;3.00;;
20207;SDS011;10263;48.716;8.760;2022-07-10T04:57:52;5.15;;;3.40;;
20207;SDS011;10263;48.716;8.760;2022-07-10T05:00:20;5.13;;;3.30;;
20207;SDS011;10263;48.716;8.760;2022-07-10T05:02:47;7.00;;;2.75;;
20207;SDS011;10263;48.716;8.760;2022-07-10T05:05:14;4.43;;;2.60;;
20207;SDS011;10263;48.716;8.760;2022-07-10T05:07:41;3.33;;;2.78;;
20207;SDS011;10263;48.716;8.760;2022-07-10T05:10:08;3.38;;;2.72;;
20207;SDS011;10263;48.716;8.760;2022-07-10T05:12:35;2.80;;;2.40;;
20207;SDS011;10263;48.716;8.760;2022-07-10T05:15:02;4.15;;;2.38;;
20207;SDS011;10263;48.716;8.760;2022-07-10T05:17:30;3.80;;;2.47;;
20207;SDS011;10263;48.716;8.760;2022-07-10T05:19:57;2.92;;;2.55;;
20207;SDS011;10263;48.716;8.760;2022-07-10T05:22:24;4.65;;;2.22;;
20207;SDS011;10263;48.716;8.760;2022-07-10T05:24:51;4.88;;;2.70;;
20207;SDS011;10263;48.716;8.760;2022-07-10T05:27:18;6.65;;;2.17;;
20207;SDS011;10263;48.716;8.760;2022-07-10T05:29:45;2.80;;;2.13;;
20207;SDS011;10263;48.716;8.760;2022-07-10T05:32:12;3.58;;;2.40;;
20207;SDS011;10263;48.716;8.760;2022-07-10T05:34:40;4.55;;;2.53;;
20207;SDS011;10263;48.716;8.760;2022-07-10T05:37:07;2.40;;;2.20;;
20207;SDS011;10263;48.716;8.760;2022-07-10T05:39:34;7.68;;;2.45;;
20207;SDS011;10263;48.716;8.760;2022-07-10T05:42:01;3.15;;;2.00;;
20207;SDS011;10263;48.716;8.760;2022-07-10T05:44:28;2.92;;;2.10;;
20207;SDS011;10263;48.716;8.760;2022-07-10T05:46:54;3.05;;;2.33;;
20207;SDS011;10263;48.716;8.760;2022-07-10T05:49:21;2.20;;;2.00;;
20207;SDS011;10263;48.716;8.760;2022-07-10T05:51:49;4.80;;;2.00;;
20207;SDS011;10263;48.716;8.760;2022-07-10T05:54:16;4.20;;;1.80;;
20207;SDS011;10263;48.716;8.760;2022-07-10T05:56:43;6.10;;;1.73;;
20207;SDS011;10263;48.716;8.760;2022-07-10T05:59:10;5.78;;;1.88;;
20207;SDS011;10263;48.716;8.760;2022-07-10T06:01:37;3.08;;;1.75;;
20207;SDS011;10263;48.716;8.760;2022-07-10T06:04:03;3.35;;;2.13;;
20207;SDS011;10263;48.716;8.760;2022-07-10T06:06:30;4.47;;;1.80;;
20207;SDS011;10263;48.716;8.760;2022-07-10T06:08:58;2.13;;;1.67;;
20207;SDS011;10263;48.716;8.760;2022-07-10T06:11:25;2.40;;;1.65;;
20207;SDS011;10263;48.716;8.760;2022-07-10T06:13:52;4.25;;;2.10;;
20207;SDS011;10263;48.716;8.760;2022-07-10T06:16:19;4.90;;;2.05;;
20207;SDS011;10263;48.716;8.760;2022-07-10T06:18:45;3.72;;;1.95;;
20207;SDS011;10263;48.716;8.760;2022-07-10T06:21:12;1.92;;;1.83;;
20207;SDS011;10263;48.716;8.760;2022-07-10T06:23:39;3.03;;;1.95;;
20207;SDS011;10263;48.716;8.760;2022-07-10T06:26:08;4.65;;;1.95;;
20207;SDS011;10263;48.716;8.760;2022-07-10T06:28:34;2.83;;;1.95;;
20207;SDS011;10263;48.716;8.760;2022-07-10T06:31:01;3.42;;;1.42;;
20207;SDS011;10263;48.716;8.760;2022-07-10T06:33:28;6.70;;;1.75;;
20207;SDS011;10263;48.716;8.760;2022-07-10T06:35:55;2.80;;;1.75;;
20207;SDS011;10263;48.716;8.760;2022-07-10T06:38:22;3.80;;;1.83;;
20207;SDS011;10263;48.716;8.760;2022-07-10T06:40:49;3.15;;;1.50;;
20207;SDS011;10263;48.716;8.760;2022-07-10T06:43:18;2.53;;;1.52;;
20207;SDS011;10263;48.716;8.760;2022-07-10T06:45:45;6.95;;;1.65;;
20207;SDS011;10263;48.716;8.760;2022-07-10T06:48:12;1.58;;;1.42;;
20207;SDS011;10263;48.716;8.760;2022-07-10T06:50:39;2.80;;;1.48;;
20207;SDS011;10263;48.716;8.760;2022-07-10T06:53:06;2.35;;;1.30;;
20207;SDS011;10263;48.716;8.760;2022-07-10T06:55:33;2.33;;;1.58;;
20207;SDS011;10263;48.716;8.760;2022-07-10T06:58:00;2.58;;;1.25;;
20207;SDS011;10263;48.716;8.760;2022-07-10T07:00:29;3.78;;;1.60;;
20207;SDS011;10263;48.716;8.760;2022-07-10T07:02:55;3.80;;;1.65;;
20207;SDS011;10263;48.716;8.760;2022-07-10T07:05:22;3.72;;;1.48;;
20207;SDS011;10263;48.716;8.760;2022-07-10T07:07:49;4.38;;;1.88;;
20207;SDS011;10263;48.716;8.760;2022-07-10T07:10:16;3.50;;;1.20;;
20207;SDS011;10263;48.716;8.760;2022-07-10T07:12:42;3.20;;;1.40;;
20207;SDS011;10263;48.716;8.760;2022-07-10T07:15:09;3.25;;;1.38;;
20207;SDS011;10263;48.716;8.760;2022-07-10T07:17:40;2.88;;;1.30;;
20207;SDS011;10263;48.716;8.760;2022-07-10T07:20:22;2.25;;;1.55;;
20207;SDS011;10263;48.716;8.760;2022-07-10T07:23:07;3.40;;;1.48;;
20207;SDS011;10263;48.716;8.760;2022-07-10T07:25:37;2.97;;;1.35;;
20207;SDS011;10263;48.716;8.760;2022-07-10T07:28:07;4.05;;;1.52;;
20207;SDS011;10263;48.716;8.760;2022-07-10T07:30:34;2.55;;;1.55;;
20207;SDS011;10263;48.716;8.760;2022-07-10T07:33:02;1.80;;;1.25;;
20207;SDS011;10263;48.716;8.760;2022-07-10T07:35:29;2.15;;;1.40;;
20207;SDS011;10263;48.716;8.760;2022-07-10T07:37:56;3.00;;;1.85;;
20207;SDS011;10263;48.716;8.760;2022-07-10T07:40:23;4.40;;;1.88;;
20207;SDS011;10263;48.716;8.760;2022-07-10T07:42:50;3.78;;;1.60;;
20207;SDS011;10263;48.716;8.760;2022-07-10T07:45:18;3.10;;;1.45;;
20207;SDS011;10263;48.716;8.760;2022-07-10T07:47:46;5.15;;;1.58;;
20207;SDS011;10263;48.716;8.760;2022-07-10T07:50:16;3.05;;;1.60;;
20207;SDS011;10263;48.716;8.760;2022-07-10T07:52:44;4.13;;;1.30;;
20207;SDS011;10263;48.716;8.760;2022-07-10T07:55:12;4.05;;;1.58;;
20207;SDS011;10263;48.716;8.760;2022-07-10T07:57:40;3.22;;;1.90;;
20207;SDS011;10263;48.716;8.760;2022-07-10T08:00:08;5.30;;;1.50;;
20207;SDS011;10263;48.716;8.760;2022-07-10T08:02:38;6.10;;;1.77;;
20207;SDS011;10263;48.716;8.760;2022-07-10T08:05:06;4.85;;;1.70;;
20207;SDS011;10263;48.716;8.760;2022-07-10T08:07:35;4.85;;;1.65;;
20207;SDS011;10263;48.716;8.760;2022-07-10T08:10:04;3.58;;;1.50;;
20207;SDS011;10263;48.716;8.760;2022-07-10T08:12:32;4.43;;;1.70;;
20207;SDS011;10263;48.716;8.760;2022-07-10T08:14:59;4.15;;;1.55;;
20207;SDS011;10263;48.716;8.760;2022-07-10T08:17:26;5.07;;;1.50;;
20207;SDS011;10263;48.716;8.760;2022-07-10T08:19:53;4.53;;;1.77;;
20207;SDS011;10263;48.716;8.760;2022-07-10T08:22:20;3.90;;;1.88;;
20207;SDS011;10263;48.716;8.760;2022-07-10T08:24:48;2.72;;;1.20;;
20207;SDS011;10263;48.716;8.760;2022-07-10T08:27:14;1.92;;;1.35;;
20207;SDS011;10263;48.716;8.760;2022-07-10T08:29:41;4.70;;;2.05;;
20207;SDS011;10263;48.716;8.760;2022-07-10T08:32:08;5.07;;;1.73;;
20207;SDS011;10263;48.716;8.760;2022-07-10T08:34:35;5.22;;;1.70;;
20207;SDS011;10263;48.716;8.760;2022-07-10T08:37:02;3.38;;;1.50;;
20207;SDS011;10263;48.716;8.760;2022-07-10T08:39:30;2.50;;;1.52;;
20207;SDS011;10263;48.716;8.760;2022-07-10T08:41:58;5.30;;;1.88;;
20207;SDS011;10263;48.716;8.760;2022-07-10T08:44:25;2.38;;;1.40;;
20207;SDS011;10263;48.716;8.760;2022-07-10T08:46:51;3.80;;;1.67;;
20207;SDS011;10263;48.716;8.760;2022-07-10T08:49:18;3.30;;;2.13;;
20207;SDS011;10263;48.716;8.760;2022-07-10T08:51:53;3.70;;;1.75;;
20207;SDS011;10263;48.716;8.760;2022-07-10T08:54:24;4.72;;;1.90;;
20207;SDS011;10263;48.716;8.760;2022-07-10T08:56:53;4.53;;;1.90;;
20207;SDS011;10263;48.716;8.760;2022-07-10T08:59:23;1.92;;;1.60;;
20207;SDS011;10263;48.716;8.760;2022-07-10T09:01:50;2.53;;;1.90;;
20207;SDS011;10263;48.716;8.760;2022-07-10T09:04:19;3.90;;;2.08;;
20207;SDS011;10263;48.716;8.760;2022-07-10T09:06:47;2.42;;;1.33;;
20207;SDS011;10263;48.716;8.760;2022-07-10T09:09:14;2.92;;;1.60;;
20207;SDS011;10263;48.716;8.760;2022-07-10T09:11:41;3.03;;;1.85;;
20207;SDS011;10263;48.716;8.760;2022-07-10T09:14:08;3.25;;;1.60;;
20207;SDS011;10263;48.716;8.760;2022-07-10T09:16:39;3.00;;;1.80;;
20207;SDS011;10263;48.716;8.760;2022-07-10T09:19:17;5.78;;;2.60;;
20207;SDS011;10263;48.716;8.760;2022-07-10T09:21:45;1.70;;;1.60;;
20207;SDS011;10263;48.716;8.760;2022-07-10T09:24:12;3.35;;;2.17;;
20207;SDS011;10263;48.716;8.760;2022-07-10T09:26:42;2.80;;;1.98;;
20207;SDS011;10263;48.716;8.760;2022-07-10T09:29:10;4.35;;;2.38;;
20207;SDS011;10263;48.716;8.760;2022-07-10T09:31:52;3.33;;;2.05;;
20207;SDS011;10263;48.716;8.760;2022-07-10T09:34:34;3.40;;;1.92;;
20207;SDS011;10263;48.716;8.760;2022-07-10T09:37:18;2.97;;;1.92;;
20207;SDS011;10263;48.716;8.760;2022-07-10T09:39:58;3.33;;;1.80;;
20207;SDS011;10263;48.716;8.760;2022-07-10T09:42:26;4.72;;;1.75;;
20207;SDS011;10263;48.716;8.760;2022-07-10T09:47:43;4.70;;;2.00;;
20207;SDS011;10263;48.716;8.760;2022-07-10T09:50:21;3.40;;;1.77;;
20207;SDS011;10263;48.716;8.760;2022-07-10T09:52:53;2.65;;;1.75;;
20207;SDS011;10263;48.716;8.760;2022-07-10T09:55:21;4.40;;;1.70;;
20207;SDS011;10263;48.716;8.760;2022-07-10T09:57:53;2.92;;;1.48;;
20207;SDS011;10263;48.716;8.760;2022-07-10T10:00:22;3.60;;;1.58;;
20207;SDS011;10263;48.716;8.760;2022-07-10T10:02:56;2.58;;;1.70;;
20207;SDS011;10263;48.716;8.760;2022-07-10T10:05:26;2.40;;;1.42;;
20207;SDS011;10263;48.716;8.760;2022-07-10T10:08:00;3.95;;;1.63;;
20207;SDS011;10263;48.716;8.760;2022-07-10T10:10:40;2.17;;;1.50;;
20207;SDS011;10263;48.716;8.760;2022-07-10T10:13:10;5.38;;;1.65;;
20207;SDS011;10263;48.716;8.760;2022-07-10T10:15:38;1.67;;;1.35;;
20207;SDS011;10263;48.716;8.760;2022-07-10T10:18:06;5.22;;;1.85;;
20207;SDS011;10263;48.716;8.760;2022-07-10T10:20:35;4.07;;;1.70;;
20207;SDS011;10263;48.716;8.760;2022-07-10T10:23:09;3.75;;;1.42;;
20207;SDS011;10263;48.716;8.760;2022-07-10T10:25:36;3.05;;;1.80;;
20207;SDS011;10263;48.716;8.760;2022-07-10T10:28:04;4.05;;;1.80;;
20207;SDS011;10263;48.716;8.760;2022-07-10T10:30:32;5.95;;;1.90;;
20207;SDS011;10263;48.716;8.760;2022-07-10T10:33:02;3.70;;;2.03;;
20207;SDS011;10263;48.716;8.760;2022-07-10T10:35:43;1.92;;;1.70;;
20207;SDS011;10263;48.716;8.760;2022-07-10T10:38:12;4.43;;;2.10;;
20207;SDS011;10263;48.716;8.760;2022-07-10T10:40:39;3.53;;;1.70;;
20207;SDS011;10263;48.716;8.760;2022-07-10T10:43:15;1.98;;;1.58;;
20207;SDS011;10263;48.716;8.760;2022-07-10T10:45:46;2.05;;;1.42;;
20207;SDS011;10263;48.716;8.760;2022-07-10T10:48:14;3.13;;;1.40;;
20207;SDS011;10263;48.716;8.760;2022-07-10T10:50:45;2.92;;;1.70;;
20207;SDS011;10263;48.716;8.760;2022-07-10T10:53:14;2.47;;;1.73;;
20207;SDS011;10263;48.716;8.760;2022-07-10T10:58:42;2.03;;;1.40;;
20207;SDS011;10263;48.716;8.760;2022-07-10T11:01:23;3.13;;;1.30;;
20207;SDS011;10263;48.716;8.760;2022-07-10T11:06:41;1.80;;;1.40;;
20207;SDS011;10263;48.716;8.760;2022-07-10T11:09:20;3.47;;;1.40;;
20207;SDS011;10263;48.716;8.760;2022-07-10T11:14:33;4.82;;;2.08;;
20207;SDS011;10263;48.716;8.760;2022-07-10T11:17:01;4.18;;;1.50;;
20207;SDS011;10263;48.716;8.760;2022-07-10T11:19:29;4.00;;;1.60;;
20207;SDS011;10263;48.716;8.760;2022-07-10T11:25:10;10.82;;;3.75;;
20207;SDS011;10263;48.716;8.760;2022-07-10T11:27:59;2.80;;;1.10;;
20207;SDS011;10263;48.716;8.760;2022-07-10T11:30:43;4.85;;;1.48;;
20207;SDS011;10263;48.716;8.760;2022-07-10T11:33:10;1.52;;;0.80;;
20207;SDS011;10263;48.716;8.760;2022-07-10T11:35:38;2.92;;;0.90;;
20207;SDS011;10263;48.716;8.760;2022-07-10T11:38:06;2.97;;;1.02;;
20207;SDS011;10263;48.716;8.760;2022-07-10T11:40:35;3.10;;;1.25;;
20207;SDS011;10263;48.716;8.760;2022-07-10T11:43:03;1.27;;;0.90;;
20207;SDS011;10263;48.716;8.760;2022-07-10T11:45:32;1.40;;;0.90;;
20207;SDS011;10263;48.716;8.760;2022-07-10T11:48:01;4.53;;;1.00;;
20207;SDS011;10263;48.716;8.760;2022-07-10T11:50:34;2.10;;;0.95;;
20207;SDS011;10263;48.716;8.760;2022-07-10T11:53:02;2.08;;;1.10;;
20207;SDS011;10263;48.716;8.760;2022-07-10T11:55:30;2.05;;;0.70;;
20207;SDS011;10263;48.716;8.760;2022-07-10T11:58:11;2.55;;;1.00;;
20207;SDS011;10263;48.716;8.760;2022-07-10T12:00:39;3.55;;;0.85;;
20207;SDS011;10263;48.716;8.760;2022-07-10T12:03:16;1.92;;;1.00;;
20207;SDS011;10263;48.716;8.760;2022-07-10T12:05:45;1.08;;;0.70;;
20207;SDS011;10263;48.716;8.760;2022-07-10T12:08:12;1.70;;;0.80;;
20207;SDS011;10263;48.716;8.760;2022-07-10T12:10:41;2.15;;;0.80;;
20207;SDS011;10263;48.716;8.760;2022-07-10T12:13:09;3.80;;;1.00;;
20207;SDS011;10263;48.716;8.760;2022-07-10T12:15:37;1.30;;;0.90;;
20207;SDS011;10263;48.716;8.760;2022-07-10T12:18:05;2.13;;;0.95;;
20207;SDS011;10263;48.716;8.760;2022-07-10T12:20:33;1.95;;;0.90;;
20207;SDS011;10263;48.716;8.760;2022-07-10T12:23:02;1.60;;;0.75;;
20207;SDS011;10263;48.716;8.760;2022-07-10T12:25:30;3.03;;;0.73;;
20207;SDS011;10263;48.716;8.760;2022-07-10T12:27:58;1.73;;;0.65;;
20207;SDS011;10263;48.716;8.760;2022-07-10T12:30:40;2.35;;;0.70;;
20207;SDS011;10263;48.716;8.760;2022-07-10T12:33:09;2.58;;;0.85;;
20207;SDS011;10263;48.716;8.760;2022-07-10T12:35:45;2.20;;;0.70;;
20207;SDS011;10263;48.716;8.760;2022-07-10T12:38:14;1.73;;;0.80;;
20207;SDS011;10263;48.716;8.760;2022-07-10T12:40:42;4.93;;;0.90;;
20207;SDS011;10263;48.716;8.760;2022-07-10T12:43:10;2.58;;;0.70;;
20207;SDS011;10263;48.716;8.760;2022-07-10T12:45:37;2.45;;;0.80;;
20207;SDS011;10263;48.716;8.760;2022-07-10T12:48:04;1.65;;;0.50;;
20207;SDS011;10263;48.716;8.760;2022-07-10T12:50:32;2.35;;;0.60;;
20207;SDS011;10263;48.716;8.760;2022-07-10T12:53:08;1.40;;;0.63;;
20207;SDS011;10263;48.716;8.760;2022-07-10T12:55:36;3.15;;;0.90;;
20207;SDS011;10263;48.716;8.760;2022-07-10T12:58:05;1.05;;;0.63;;
20207;SDS011;10263;48.716;8.760;2022-07-10T13:00:35;3.03;;;0.70;;
20207;SDS011;10263;48.716;8.760;2022-07-10T13:03:10;1.17;;;0.60;;
20207;SDS011;10263;48.716;8.760;2022-07-10T13:05:47;1.67;;;0.70;;
20207;SDS011;10263;48.716;8.760;2022-07-10T13:08:14;2.28;;;0.80;;
20207;SDS011;10263;48.716;8.760;2022-07-10T13:10:45;2.95;;;0.85;;
20207;SDS011;10263;48.716;8.760;2022-07-10T13:13:14;0.82;;;0.70;;
20207;SDS011;10263;48.716;8.760;2022-07-10T13:15:42;3.60;;;1.30;;
20207;SDS011;10263;48.716;8.760;2022-07-10T13:18:14;1.67;;;0.85;;
20207;SDS011;10263;48.716;8.760;2022-07-10T13:20:42;1.70;;;0.80;;
20207;SDS011;10263;48.716;8.760;2022-07-10T13:23:09;1.25;;;0.75;;
20207;SDS011;10263;48.716;8.760;2022-07-10T13:25:36;3.70;;;1.15;;
20207;SDS011;10263;48.716;8.760;2022-07-10T13:28:04;1.73;;;0.75;;
20207;SDS011;10263;48.716;8.760;2022-07-10T13:30:31;1.23;;;0.80;;
20207;SDS011;10263;48.716;8.760;2022-07-10T13:32:59;1.63;;;0.90;;
20207;SDS011;10263;48.716;8.760;2022-07-10T13:35:27;5.50;;;1.05;;
20207;SDS011;10263;48.716;8.760;2022-07-10T13:37:53;2.13;;;0.70;;
20207;SDS011;10263;48.716;8.760;2022-07-10T13:40:20;1.75;;;0.88;;
20207;SDS011;10263;48.716;8.760;2022-07-10T13:42:47;1.15;;;0.70;;
20207;SDS011;10263;48.716;8.760;2022-07-10T13:45:14;2.05;;;0.80;;
20207;SDS011;10263;48.716;8.760;2022-07-10T13:47:40;1.65;;;1.00;;
20207;SDS011;10263;48.716;8.760;2022-07-10T13:50:08;1.33;;;0.70;;
20207;SDS011;10263;48.716;8.760;2022-07-10T13:52:35;2.40;;;0.90;;
20207;SDS011;10263;48.716;8.760;2022-07-10T13:55:02;3.92;;;1.00;;
20207;SDS011;10263;48.716;8.760;2022-07-10T13:57:31;2.25;;;0.70;;
20207;SDS011;10263;48.716;8.760;2022-07-10T13:59:58;3.05;;;0.82;;
20207;SDS011;10263;48.716;8.760;2022-07-10T14:02:25;2.05;;;0.80;;
20207;SDS011;10263;48.716;8.760;2022-07-10T14:04:51;2.17;;;0.70;;
20207;SDS011;10263;48.716;8.760;2022-07-10T14:07:20;1.52;;;0.70;;
20207;SDS011;10263;48.716;8.760;2022-07-10T14:09:46;2.33;;;0.80;;
20207;SDS011;10263;48.716;8.760;2022-07-10T14:12:13;1.77;;;0.80;;
20207;SDS011;10263;48.716;8.760;2022-07-10T14:14:40;1.30;;;0.80;;
20207;SDS011;10263;48.716;8.760;2022-07-10T14:17:07;1.42;;;0.73;;
20207;SDS011;10263;48.716;8.760;2022-07-10T14:19:34;2.30;;;0.80;;
20207;SDS011;10263;48.716;8.760;2022-07-10T14:22:01;2.33;;;0.82;;
20207;SDS011;10263;48.716;8.760;2022-07-10T14:24:29;2.28;;;1.00;;
20207;SDS011;10263;48.716;8.760;2022-07-10T14:26:56;1.63;;;0.90;;
20207;SDS011;10263;48.716;8.760;2022-07-10T14:29:23;2.00;;;0.80;;
20207;SDS011;10263;48.716;8.760;2022-07-10T14:31:49;1.40;;;0.77;;
20207;SDS011;10263;48.716;8.760;2022-07-10T14:34:17;2.15;;;1.17;;
20207;SDS011;10263;48.716;8.760;2022-07-10T14:36:44;3.45;;;0.90;;
20207;SDS011;10263;48.716;8.760;2022-07-10T14:39:11;2.25;;;0.85;;
20207;SDS011;10263;48.716;8.760;2022-07-10T14:41:39;3.60;;;0.80;;
20207;SDS011;10263;48.716;8.760;2022-07-10T14:44:06;1.88;;;1.00;;
20207;SDS011;10263;48.716;8.760;2022-07-10T14:46:33;2.65;;;0.70;;
20207;SDS011;10263;48.716;8.760;2022-07-10T14:49:00;1.08;;;0.60;;
20207;SDS011;10263;48.716;8.760;2022-07-10T14:51:27;9.98;;;1.23;;
20207;SDS011;10263;48.716;8.760;2022-07-10T14:53:54;2.17;;;0.70;;
20207;SDS011;10263;48.716;8.760;2022-07-10T14:56:21;3.33;;;1.08;;
20207;SDS011;10263;48.716;8.760;2022-07-10T14:58:50;1.83;;;0.82;;
20207;SDS011;10263;48.716;8.760;2022-07-10T15:01:16;3.20;;;0.75;;
20207;SDS011;10263;48.716;8.760;2022-07-10T15:03:43;2.55;;;0.70;;
20207;SDS011;10263;48.716;8.760;2022-07-10T15:06:10;2.10;;;0.75;;
20207;SDS011;10263;48.716;8.760;2022-07-10T15:08:37;2.35;;;0.90;;
20207;SDS011;10263;48.716;8.760;2022-07-10T15:11:04;4.35;;;1.50;;